createdAt,value
2022-08-18T00:01:35.850Z,4.82
2022-08-18T00:06:30.496Z,5.65
2022-08-18T00:11:24.362Z,5.95
2022-08-18T00:16:18.322Z,5.13
2022-08-18T00:21:11.611Z,5.35
2022-08-18T00:26:06.419Z,6.10
2022-08-18T00:31:00.940Z,5.32
2022-08-18T00:35:54.940Z,5.30
2022-08-18T00:40:50.454Z,4.78
2022-08-18T00:45:44.693Z,4.93
2022-08-18T00:50:40.756Z,6.32
2022-08-18T00:55:34.871Z,4.78
2022-08-18T01:00:27.909Z,4.57
2022-08-18T01:05:31.095Z,5.18
2022-08-18T01:10:24.943Z,6.15
2022-08-18T01:15:27.870Z,6.13
2022-08-18T01:20:52.887Z,5.55
2022-08-18T01:26:02.361Z,5.40
2022-08-18T01:30:59.320Z,5.32
2022-08-18T01:35:54.290Z,5.68
2022-08-18T01:41:11.075Z,6.90
2022-08-18T01:46:01.910Z,7.75
2022-08-18T01:50:57.512Z,4.78
2022-08-18T01:55:51.700Z,4.40
2022-08-18T02:00:45.302Z,4.95
2022-08-18T02:05:43.732Z,5.00
2022-08-18T02:15:32.076Z,4.78
2022-08-18T02:20:26.392Z,4.40
2022-08-18T02:25:20.729Z,4.45
2022-08-18T02:30:17.236Z,4.32
2022-08-18T02:35:12.270Z,5.10
2022-08-18T02:40:08.222Z,6.30
2022-08-18T02:45:06.463Z,5.38
2022-08-18T02:50:03.522Z,4.60
2022-08-18T02:54:57.167Z,4.53
2022-08-18T02:59:51.252Z,4.45
2022-08-18T03:04:46.261Z,4.00
2022-08-18T03:09:39.988Z,4.93
2022-08-18T03:14:33.427Z,5.63
2022-08-18T03:19:29.916Z,4.97
2022-08-18T03:24:23.846Z,4.22
2022-08-18T03:29:18.334Z,4.88
2022-08-18T03:34:14.613Z,5.40
2022-08-18T03:39:11.891Z,4.13
2022-08-18T03:44:05.719Z,4.93
2022-08-18T03:49:00.885Z,5.82
2022-08-18T03:53:56.466Z,5.60
2022-08-18T03:58:57.523Z,5.72
2022-08-18T04:03:54.776Z,4.82
2022-08-18T04:08:50.100Z,5.10
2022-08-18T04:13:43.700Z,5.00
2022-08-18T04:18:37.752Z,5.55
2022-08-18T04:23:33.113Z,4.97
2022-08-18T04:28:38.420Z,6.53
2022-08-18T04:33:32.915Z,5.95
2022-08-18T04:38:28.339Z,5.78
2022-08-18T04:43:22.452Z,6.45
2022-08-18T04:48:17.239Z,6.25
2022-08-18T04:53:30.517Z,9.80
2022-08-18T04:58:24.771Z,5.88
2022-08-18T05:03:19.348Z,7.15
2022-08-18T05:08:12.979Z,7.80
2022-08-18T05:13:07.349Z,7.45
2022-08-18T05:18:01.426Z,8.27
2022-08-18T05:22:56.722Z,6.88
2022-08-18T05:27:51.103Z,6.95
2022-08-18T05:32:49.967Z,8.02
2022-08-18T05:38:03.771Z,9.00
2022-08-18T05:42:58.272Z,7.47
2022-08-18T05:47:52.483Z,10.77
2022-08-18T05:53:00.791Z,6.80
2022-08-18T05:58:00.696Z,8.07
2022-08-18T06:03:00.577Z,7.40
2022-08-18T06:08:16.631Z,7.20
2022-08-18T06:13:11.830Z,9.35
2022-08-18T06:18:08.411Z,7.97
2022-08-18T06:23:47.799Z,7.05
2022-08-18T06:28:53.084Z,6.97
2022-08-18T06:33:58.756Z,6.95
2022-08-18T06:39:06.745Z,6.78
2022-08-18T06:44:07.374Z,5.70
2022-08-18T06:49:08.413Z,5.20
2022-08-18T06:54:05.224Z,7.45
2022-08-18T06:59:24.436Z,5.40
2022-08-18T07:04:38.922Z,5.28
2022-08-18T07:09:34.965Z,6.30
2022-08-18T07:14:29.492Z,4.93
2022-08-18T07:19:30.427Z,5.40
2022-08-18T07:24:30.231Z,5.18
2022-08-18T07:29:24.762Z,5.60
2022-08-18T07:34:41.649Z,6.15
2022-08-18T07:39:44.098Z,5.90
2022-08-18T07:44:54.594Z,7.78
2022-08-18T07:50:15.743Z,7.15
2022-08-18T07:55:09.948Z,7.30
2022-08-18T08:00:41.185Z,7.72
2022-08-18T08:05:52.825Z,8.07
2022-08-18T08:10:59.901Z,9.50
2022-08-18T08:15:58.351Z,9.45
2022-08-18T08:21:09.022Z,11.13
2022-08-18T08:26:17.196Z,9.60
2022-08-18T08:31:49.811Z,12.07
2022-08-18T08:36:47.353Z,10.98
2022-08-18T08:41:46.701Z,11.77
2022-08-18T08:46:47.326Z,10.10
2022-08-18T08:51:47.382Z,16.13
2022-08-18T08:56:47.416Z,12.68
2022-08-18T09:01:46.916Z,12.27
2022-08-18T09:06:46.066Z,11.98
2022-08-18T09:12:13.081Z,12.20
2022-08-18T09:17:34.103Z,12.55
2022-08-18T09:23:05.528Z,12.13
2022-08-18T09:28:30.593Z,2.58
2022-08-18T09:33:27.106Z,1.90
2022-08-18T09:38:42.329Z,2.37
2022-08-18T09:43:41.518Z,5.15
2022-08-18T09:48:43.177Z,3.78
2022-08-18T09:54:11.132Z,3.20
2022-08-18T09:59:10.753Z,2.15
2022-08-18T10:09:37.643Z,1.40
2022-08-18T10:14:53.852Z,1.60
2022-08-18T10:20:25.891Z,2.05
2022-08-18T10:25:49.163Z,1.58
2022-08-18T10:30:57.580Z,2.17
2022-08-18T10:36:03.037Z,1.17
2022-08-18T10:41:15.545Z,1.00
2022-08-18T10:46:27.752Z,1.42
2022-08-18T10:57:31.102Z,1.52
2022-08-18T11:02:38.936Z,1.70
2022-08-18T11:07:33.992Z,1.67
2022-08-18T11:13:09.876Z,2.25
2022-08-18T11:24:08.296Z,1.20
2022-08-18T11:29:19.735Z,2.28
2022-08-18T11:34:24.214Z,0.90
2022-08-18T11:39:18.482Z,0.80
2022-08-18T11:44:29.817Z,0.90
2022-08-18T11:49:34.154Z,1.30
2022-08-18T12:00:00.995Z,0.70
2022-08-18T12:15:46.583Z,0.50
2022-08-18T12:20:41.333Z,0.68
2022-08-18T12:25:35.260Z,0.40
2022-08-18T12:30:34.966Z,0.30
2022-08-18T12:35:30.718Z,0.40
2022-08-18T12:40:24.529Z,0.40
2022-08-18T12:45:20.344Z,0.30
2022-08-18T12:50:14.686Z,0.30
2022-08-18T12:55:21.911Z,0.60
2022-08-18T13:00:18.647Z,0.20
2022-08-18T13:05:13.536Z,0.28
2022-08-18T13:10:09.204Z,0.20
2022-08-18T13:15:24.342Z,0.40
2022-08-18T13:20:21.404Z,0.40
2022-08-18T13:25:32.118Z,0.22
2022-08-18T13:30:31.426Z,0.55
2022-08-18T13:35:26.753Z,0.40
2022-08-18T13:40:24.108Z,0.55
2022-08-18T13:45:25.701Z,0.70
2022-08-18T13:50:21.460Z,0.52
2022-08-18T13:55:29.796Z,0.60
2022-08-18T14:00:29.967Z,1.15
2022-08-18T14:05:25.204Z,0.80
2022-08-18T14:10:39.512Z,1.02
2022-08-18T14:15:36.694Z,0.90
2022-08-18T14:20:48.912Z,0.90
2022-08-18T14:26:02.708Z,0.70
2022-08-18T14:30:58.267Z,0.80
2022-08-18T14:36:05.936Z,0.90
2022-08-18T14:41:04.117Z,0.77
2022-08-18T14:46:00.339Z,0.80
2022-08-18T14:50:55.614Z,0.80
2022-08-18T14:55:53.747Z,0.88
2022-08-18T15:00:50.079Z,0.70
2022-08-18T15:05:47.379Z,0.90
2022-08-18T15:10:41.555Z,1.05
2022-08-18T15:15:51.029Z,1.00
2022-08-18T15:21:04.632Z,0.60
2022-08-18T15:26:05.237Z,0.80
2022-08-18T15:36:16.177Z,0.80
2022-08-18T15:41:10.492Z,1.10
2022-08-18T15:46:07.068Z,1.05
2022-08-18T15:51:12.200Z,0.80
2022-08-18T15:56:07.170Z,0.60
2022-08-18T16:01:01.273Z,1.00
2022-08-18T16:06:20.570Z,0.90
2022-08-18T16:11:19.339Z,0.90
2022-08-18T16:16:29.180Z,1.02
2022-08-18T16:21:29.776Z,1.30
2022-08-18T16:26:23.005Z,1.17
2022-08-18T16:31:17.496Z,1.00
2022-08-18T16:36:13.970Z,1.20
2022-08-18T16:41:13.484Z,1.10
2022-08-18T16:46:33.559Z,1.50
2022-08-18T16:51:29.047Z,2.47
2022-08-18T16:56:30.904Z,2.90
2022-08-18T17:01:48.871Z,2.50
2022-08-18T17:06:47.262Z,2.70
2022-08-18T17:11:51.785Z,2.63
2022-08-18T17:16:47.289Z,2.10
2022-08-18T17:21:41.465Z,1.95
2022-08-18T17:27:11.891Z,2.88
2022-08-18T17:32:08.282Z,2.40
2022-08-18T17:37:03.292Z,2.40
2022-08-18T17:42:15.547Z,2.72
2022-08-18T17:47:12.154Z,2.50
2022-08-18T17:52:06.675Z,3.38
2022-08-18T17:57:15.703Z,2.47
2022-08-18T18:02:33.879Z,3.45
2022-08-18T18:07:38.339Z,2.97
2022-08-18T18:12:35.419Z,3.50
2022-08-18T18:17:32.826Z,5.07
2022-08-18T18:22:28.855Z,3.20
2022-08-18T18:27:32.185Z,4.50
2022-08-18T18:32:30.491Z,3.22
2022-08-18T18:37:33.044Z,3.83
2022-08-18T18:42:29.718Z,3.50
2022-08-18T18:47:25.969Z,3.42
2022-08-18T18:52:23.949Z,3.13
2022-08-18T18:57:29.079Z,4.72
2022-08-18T19:02:37.597Z,3.92
2022-08-18T19:08:19.900Z,3.55
2022-08-18T19:13:35.060Z,4.70
2022-08-18T19:18:29.972Z,3.75
2022-08-18T19:23:45.236Z,4.53
2022-08-18T19:29:12.770Z,5.18
2022-08-18T19:34:08.607Z,5.57
2022-08-18T19:39:51.163Z,6.72
2022-08-18T19:45:15.478Z,7.10
2022-08-18T19:50:47.988Z,6.50
2022-08-18T19:55:56.907Z,7.47
2022-08-18T20:06:32.633Z,6.68
2022-08-18T20:11:42.526Z,7.75
2022-08-18T20:16:43.803Z,10.32
2022-08-18T20:21:47.971Z,8.93
2022-08-18T20:26:50.007Z,8.10
2022-08-18T20:31:51.716Z,7.35
2022-08-18T20:36:47.827Z,8.88
2022-08-18T20:41:52.100Z,8.88
2022-08-18T20:46:50.872Z,8.00
2022-08-18T20:51:52.221Z,8.25
2022-08-18T20:56:52.412Z,7.95
2022-08-18T21:02:17.526Z,8.18
2022-08-18T21:07:18.868Z,9.07
2022-08-18T21:12:31.456Z,8.45
2022-08-18T21:17:27.126Z,8.68
2022-08-18T21:22:21.717Z,8.68
2022-08-18T21:27:36.025Z,7.57
2022-08-18T21:32:32.415Z,6.88
2022-08-18T21:37:26.559Z,8.82
2022-08-18T21:42:28.724Z,8.32
2022-08-18T21:47:30.772Z,7.50
2022-08-18T21:52:27.445Z,7.80
2022-08-18T21:57:26.624Z,8.25
2022-08-18T22:02:21.749Z,8.63
2022-08-18T22:07:34.771Z,9.10
2022-08-18T22:12:52.125Z,9.15
2022-08-18T22:17:55.620Z,10.45
2022-08-18T22:23:33.399Z,9.88
2022-08-18T22:28:52.820Z,8.75
2022-08-18T22:33:47.288Z,9.88
2022-08-18T22:39:20.508Z,8.73
2022-08-18T22:44:14.454Z,9.52
2022-08-18T22:49:07.433Z,10.38
2022-08-18T22:54:01.682Z,10.13
2022-08-18T22:58:57.780Z,11.57
2022-08-18T23:03:52.703Z,10.43
2022-08-18T23:08:54.863Z,11.23
2022-08-18T23:13:50.614Z,10.75
2022-08-18T23:18:44.436Z,10.57
2022-08-18T23:23:38.607Z,10.55
2022-08-18T23:28:33.144Z,10.50
2022-08-18T23:33:27.739Z,10.48
2022-08-18T23:38:21.963Z,10.40
2022-08-18T23:43:25.277Z,9.75
2022-08-18T23:48:24.379Z,10.00
2022-08-18T23:53:20.056Z,10.18
2022-08-18T23:58:13.397Z,10.45
